Terminal Aerodrome Forecast
Issued by NWS

Current Version | Previous Version | Graphics & Text | Print | Product List | Glossary On
Versions: 1 2 3 4 5 6 7 8 9 10 11 12 13 14 15 16 17 18
000
FTUS41 KILN 280500
TAFLUK
TAF
KLUK 280531Z 2806/2906 00000KT P6SM OVC250
      TEMPO 2807/2811 1SM BR BKN001
     FM281300 09004KT P6SM FEW050 BKN250
     FM290000 VRB03KT P6SM SCT250=

USA.gov is the U.S. government's official web portal to all federal, state and local government web resources and services.